Time,TemperatureF,DewpointF,PressureIn,WindDirection,WindDirectionDegrees,WindSpeedMPH,WindSpeedGustMPH,Humidity,HourlyPrecipIn,Conditions,Clouds,dailyrainin,SoftwareType,DateUTC
2013-03-06 00:00:00,29.6,26.3,29.34,WSW,241,0.0,0.0,87,0.00,,,-99.99,HOBO +U30 +Weather +,2013-03-06 05:00:00,
2013-03-06 00:05:00,29.6,26.2,29.33,WSW,241,0.0,0.0,87,0.00,,,-99.99,HOBO +U30 +Weather +,2013-03-06 05:05:00,
2013-03-06 00:10:00,29.5,26.2,29.34,WSW,241,0.0,0.0,87,0.00,,,-99.99,HOBO +U30 +Weather +,2013-03-06 05:10:00,
2013-03-06 00:15:00,29.5,26.3,29.34,WSW,241,0.0,0.0,87,0.00,,,-99.99,HOBO +U30 +Weather +,2013-03-06 05:15:00,
2013-03-06 00:20:00,29.6,26.4,29.34,WSW,241,0.0,0.0,87,0.00,,,-99.99,HOBO +U30 +Weather +,2013-03-06 05:20:00,
2013-03-06 00:25:00,29.5,26.3,29.34,WSW,241,0.0,0.0,87,0.00,,,-99.99,HOBO +U30 +Weather +,2013-03-06 05:25:00,
2013-03-06 00:30:00,29.6,26.4,29.34,WSW,241,0.0,0.0,87,0.00,,,-99.99,HOBO +U30 +Weather +,2013-03-06 05:30:00,
2013-03-06 00:35:00,29.5,26.5,29.35,WSW,241,0.0,0.0,88,0.00,,,-99.99,HOBO +U30 +Weather +,2013-03-06 05:35:00,
2013-03-06 00:40:00,29.6,26.6,29.35,WSW,241,0.0,0.0,88,0.00,,,-99.99,HOBO +U30 +Weather +,2013-03-06 05:40:00,
2013-03-06 00:50:00,29.7,26.7,29.35,WSW,241,0.0,0.0,88,0.00,,,-99.99,HOBO +U30 +Weather +,2013-03-06 05:50:00,
2013-03-06 01:10:00,29.9,26.8,29.35,WSW,241,0.0,0.0,88,0.00,,,-99.99,HOBO +U30 +Weather +,2013-03-06 06:10:00,
2013-03-06 01:15:00,30.1,27.0,29.35,WSW,241,0.0,0.0,88,0.00,,,-99.99,HOBO +U30 +Weather +,2013-03-06 06:15:00,
2013-03-06 01:20:00,30.1,27.0,29.35,WSW,241,0.0,0.0,88,0.00,,,-99.99,HOBO +U30 +Weather +,2013-03-06 06:20:00,
2013-03-06 01:25:00,30.1,27.0,29.35,WSW,241,0.0,0.0,88,0.00,,,-99.99,HOBO +U30 +Weather +,2013-03-06 06:25:00,
2013-03-06 01:30:00,30.1,27.0,29.35,WSW,241,0.0,0.0,88,0.00,,,-99.99,HOBO +U30 +Weather +,2013-03-06 06:30:00,
2013-03-06 01:35:00,30.1,27.0,29.35,WSW,241,0.0,0.0,88,0.00,,,-99.99,HOBO +U30 +Weather +,2013-03-06 06:35:00,
2013-03-06 01:40:00,30.1,27.1,29.35,WSW,241,0.0,0.0,88,0.00,,,-99.99,HOBO +U30 +Weather +,2013-03-06 06:40:00,
2013-03-06 01:45:00,30.1,27.1,29.35,WSW,241,0.0,0.0,88,0.00,,,-99.99,HOBO +U30 +Weather +,2013-03-06 06:45:00,
2013-03-06 01:50:00,30.1,27.2,29.35,WSW,241,0.0,0.0,88,0.00,,,-99.99,HOBO +U30 +Weather +,2013-03-06 06:50:00,
2013-03-06 01:55:00,30.1,27.2,29.35,WSW,241,0.0,0.0,88,0.00,,,-99.99,HOBO +U30 +Weather +,2013-03-06 06:55:00,
2013-03-06 02:00:00,30.1,27.2,29.34,WSW,241,0.0,0.0,88,0.00,,,-99.99,HOBO +U30 +Weather +,2013-03-06 07:00:00,
2013-03-06 02:05:00,30.2,27.3,29.34,WSW,241,0.0,0.0,88,0.00,,,-99.99,HOBO +U30 +Weather +,2013-03-06 07:05:00,
2013-03-06 02:10:00,30.3,27.4,29.34,WSW,241,0.0,0.0,88,0.00,,,-99.99,HOBO +U30 +Weather +,2013-03-06 07:10:00,
2013-03-06 02:20:00,30.2,27.4,29.34,WSW,241,0.0,0.0,89,0.00,,,-99.99,HOBO +U30 +Weather +,2013-03-06 07:20:00,
2013-03-06 02:25:00,30.2,27.4,29.33,WSW,241,0.0,0.0,89,0.00,,,-99.99,HOBO +U30 +Weather +,2013-03-06 07:25:00,
2013-03-06 02:30:00,30.2,27.4,29.33,WSW,241,0.0,0.0,89,0.00,,,-99.99,HOBO +U30 +Weather +,2013-03-06 07:30:00,
2013-03-06 02:35:00,30.1,27.4,29.33,WSW,241,0.0,0.0,89,0.00,,,-99.99,HOBO +U30 +Weather +,2013-03-06 07:35:00,
2013-03-06 02:40:00,30.0,27.3,29.33,WSW,241,0.0,0.0,89,0.00,,,-99.99,HOBO +U30 +Weather +,2013-03-06 07:40:00,
2013-03-06 02:45:00,29.9,27.2,29.33,WSW,241,0.0,0.0,89,0.00,,,-99.99,HOBO +U30 +Weather +,2013-03-06 07:45:00,
2013-03-06 02:50:00,29.8,27.1,29.33,WSW,241,0.0,0.0,89,0.00,,,-99.99,HOBO +U30 +Weather +,2013-03-06 07:50:00,
2013-03-06 02:55:00,29.8,27.1,29.34,WSW,241,0.0,0.0,89,0.00,,,-99.99,HOBO +U30 +Weather +,2013-03-06 07:55:00,
2013-03-06 03:00:00,29.7,27.1,29.34,WSW,241,0.0,0.0,89,0.00,,,-99.99,HOBO +U30 +Weather +,2013-03-06 08:00:00,
2013-03-06 03:05:00,30.0,27.3,29.34,WSW,241,0.0,0.0,89,0.00,,,-99.99,HOBO +U30 +Weather +,2013-03-06 08:05:00,
2013-03-06 03:10:00,29.8,27.1,29.34,WSW,241,0.0,0.0,89,0.00,,,-99.99,HOBO +U30 +Weather +,2013-03-06 08:10:00,
2013-03-06 03:15:00,29.6,26.9,29.34,WSW,241,0.0,0.0,89,0.00,,,-99.99,HOBO +U30 +Weather +,2013-03-06 08:15:00,
2013-03-06 03:20:00,29.4,26.7,29.34,WSW,241,0.0,0.0,89,0.00,,,-99.99,HOBO +U30 +Weather +,2013-03-06 08:20:00,
2013-03-06 03:25:00,28.9,26.3,29.34,WSW,241,0.0,0.0,89,0.00,,,-99.99,HOBO +U30 +Weather +,2013-03-06 08:25:00,
2013-03-06 03:30:00,29.0,26.5,29.34,WSW,241,0.0,0.0,90,0.00,,,-99.99,HOBO +U30 +Weather +,2013-03-06 08:30:00,
2013-03-06 03:35:00,29.0,26.5,29.34,WSW,241,0.0,0.0,90,0.00,,,-99.99,HOBO +U30 +Weather +,2013-03-06 08:35:00,
2013-03-06 03:40:00,29.1,26.6,29.34,WSW,241,0.0,0.0,90,0.00,,,-99.99,HOBO +U30 +Weather +,2013-03-06 08:40:00,
2013-03-06 03:45:00,29.2,26.8,29.34,WSW,241,0.0,0.0,90,0.00,,,-99.99,HOBO +U30 +Weather +,2013-03-06 08:45:00,
2013-03-06 03:50:00,29.4,26.9,29.34,WSW,241,0.0,0.0,90,0.00,,,-99.99,HOBO +U30 +Weather +,2013-03-06 08:50:00,
2013-03-06 03:55:00,29.6,27.0,29.34,WSW,241,0.0,0.0,90,0.00,,,-99.99,HOBO +U30 +Weather +,2013-03-06 08:55:00,
2013-03-06 04:00:00,29.5,27.0,29.34,WSW,241,0.0,0.0,90,0.00,,,-99.99,HOBO +U30 +Weather +,2013-03-06 09:00:00,
2013-03-06 04:10:00,29.7,27.2,29.35,WSW,241,0.0,0.0,90,0.00,,,-99.99,HOBO +U30 +Weather +,2013-03-06 09:10:00,
2013-03-06 04:15:00,29.9,27.4,29.35,WSW,241,0.0,0.0,90,0.00,,,-99.99,HOBO +U30 +Weather +,2013-03-06 09:15:00,
2013-03-06 04:20:00,29.8,27.2,29.35,WSW,241,0.0,0.0,90,0.00,,,-99.99,HOBO +U30 +Weather +,2013-03-06 09:20:00,
2013-03-06 04:25:00,29.8,27.2,29.35,WSW,241,0.0,0.0,90,0.00,,,-99.99,HOBO +U30 +Weather +,2013-03-06 09:25:00,
2013-03-06 04:30:00,30.0,27.5,29.35,WSW,241,0.0,0.0,90,0.00,,,-99.99,HOBO +U30 +Weather +,2013-03-06 09:30:00,
2013-03-06 04:35:00,29.9,27.4,29.35,WSW,241,0.0,0.0,90,0.00,,,-99.99,HOBO +U30 +Weather +,2013-03-06 09:35:00,
2013-03-06 04:40:00,30.1,27.6,29.35,WSW,241,0.0,0.0,90,0.00,,,-99.99,HOBO +U30 +Weather +,2013-03-06 09:40:00,
2013-03-06 04:45:00,30.1,27.6,29.35,WSW,241,0.0,0.0,90,0.00,,,-99.99,HOBO +U30 +Weather +,2013-03-06 09:45:00,
2013-03-06 04:50:00,30.2,27.7,29.35,WSW,241,0.0,0.0,90,0.00,,,-99.99,HOBO +U30 +Weather +,2013-03-06 09:50:00,
2013-03-06 04:55:00,30.5,28.0,29.35,WSW,241,0.0,0.0,90,0.00,,,-99.99,HOBO +U30 +Weather +,2013-03-06 09:55:00,
2013-03-06 05:05:00,31.0,28.3,29.36,WNW,293,0.0,0.0,89,0.00,,,-99.99,HOBO +U30 +Weather +,2013-03-06 10:05:00,
2013-03-06 05:10:00,31.0,28.2,29.35,WNW,293,0.0,0.0,89,0.00,,,-99.99,HOBO +U30 +Weather +,2013-03-06 10:10:00,
2013-03-06 05:15:00,31.6,28.6,29.35,WNW,292,0.0,0.0,88,0.00,,,-99.99,HOBO +U30 +Weather +,2013-03-06 10:15:00,
2013-03-06 05:20:00,31.6,28.5,29.35,WNW,292,0.0,0.0,88,0.00,,,-99.99,HOBO +U30 +Weather +,2013-03-06 10:20:00,
2013-03-06 05:25:00,31.4,28.3,29.35,WNW,292,0.0,0.0,88,0.00,,,-99.99,HOBO +U30 +Weather +,2013-03-06 10:25:00,
2013-03-06 05:30:00,31.1,28.2,29.35,WNW,292,0.0,0.0,88,0.00,,,-99.99,HOBO +U30 +Weather +,2013-03-06 10:30:00,
2013-03-06 05:35:00,31.0,28.2,29.35,WNW,292,0.0,0.0,89,0.00,,,-99.99,HOBO +U30 +Weather +,2013-03-06 10:35:00,
2013-03-06 05:40:00,31.1,28.3,29.35,WNW,292,0.0,0.0,89,0.00,,,-99.99,HOBO +U30 +Weather +,2013-03-06 10:40:00,
2013-03-06 05:45:00,31.1,28.3,29.36,WNW,292,0.0,0.0,89,0.00,,,-99.99,HOBO +U30 +Weather +,2013-03-06 10:45:00,
2013-03-06 05:50:00,31.0,28.3,29.35,WNW,292,0.0,0.0,89,0.00,,,-99.99,HOBO +U30 +Weather +,2013-03-06 10:50:00,
2013-03-06 05:55:00,31.1,28.3,29.36,WNW,292,0.0,0.0,89,0.00,,,-99.99,HOBO +U30 +Weather +,2013-03-06 10:55:00,
2013-03-06 06:00:00,31.3,28.4,29.36,WNW,292,0.0,0.0,89,0.00,,,-99.99,HOBO +U30 +Weather +,2013-03-06 11:00:00,
2013-03-06 06:05:00,31.3,28.5,29.36,WNW,292,0.0,0.0,89,0.00,,,-99.99,HOBO +U30 +Weather +,2013-03-06 11:05:00,
2013-03-06 06:10:00,31.2,28.4,29.36,WNW,292,0.0,0.0,89,0.00,,,-99.99,HOBO +U30 +Weather +,2013-03-06 11:10:00,
2013-03-06 06:15:00,31.2,28.4,29.36,WNW,292,0.0,0.0,89,0.00,,,-99.99,HOBO +U30 +Weather +,2013-03-06 11:15:00,
2013-03-06 06:20:00,31.5,28.7,29.36,WNW,292,0.0,0.0,89,0.00,,,-99.99,HOBO +U30 +Weather +,2013-03-06 11:20:00,
2013-03-06 06:25:00,31.5,28.5,29.36,WNW,292,0.0,0.0,88,0.00,,,-99.99,HOBO +U30 +Weather +,2013-03-06 11:25:00,
2013-03-06 06:30:00,31.3,28.4,29.37,WNW,292,0.0,0.0,89,0.00,,,-99.99,HOBO +U30 +Weather +,2013-03-06 11:30:00,
2013-03-06 06:35:00,31.3,28.5,29.37,WNW,292,0.0,0.0,89,0.00,,,-99.99,HOBO +U30 +Weather +,2013-03-06 11:35:00,
2013-03-06 06:40:00,31.9,29.0,29.37,WNW,292,0.0,0.0,88,0.00,,,-99.99,HOBO +U30 +Weather +,2013-03-06 11:40:00,
2013-03-06 06:45:00,32.6,29.5,29.37,North,351,0.0,0.0,88,0.00,,,-99.99,HOBO +U30 +Weather +,2013-03-06 11:45:00,
2013-03-06 06:50:00,33.6,30.0,29.37,ENE,59,0.0,0.0,86,0.00,,,-99.99,HOBO +U30 +Weather +,2013-03-06 11:50:00,
2013-03-06 06:55:00,33.8,29.8,29.37,NNE,27,0.0,0.0,85,0.00,,,-99.99,HOBO +U30 +Weather +,2013-03-06 11:55:00,
2013-03-06 07:00:00,34.1,29.9,29.37,NE,55,0.0,0.0,84,0.00,,,-99.99,HOBO +U30 +Weather +,2013-03-06 12:00:00,
2013-03-06 07:05:00,34.3,29.9,29.38,East,88,0.0,0.0,83,0.00,,,-99.99,HOBO +U30 +Weather +,2013-03-06 12:05:00,
2013-03-06 07:10:00,34.3,29.8,29.38,East,80,0.0,0.0,83,0.00,,,-99.99,HOBO +U30 +Weather +,2013-03-06 12:10:00,
2013-03-06 07:15:00,34.7,30.0,29.38,NE,56,0.0,0.4,82,0.00,,,-99.99,HOBO +U30 +Weather +,2013-03-06 12:15:00,
2013-03-06 07:20:00,34.7,30.0,29.38,ENE,59,0.0,0.0,82,0.00,,,-99.99,HOBO +U30 +Weather +,2013-03-06 12:20:00,
2013-03-06 07:25:00,34.8,29.9,29.38,ENE,58,0.0,0.0,82,0.00,,,-99.99,HOBO +U30 +Weather +,2013-03-06 12:25:00,
2013-03-06 07:30:00,35.0,29.9,29.38,ENE,63,0.0,0.0,81,0.00,,,-99.99,HOBO +U30 +Weather +,2013-03-06 12:30:00,
2013-03-06 07:35:00,35.0,29.8,29.38,ENE,69,0.0,0.0,81,0.00,,,-99.99,HOBO +U30 +Weather +,2013-03-06 12:35:00,
2013-03-06 07:40:00,35.1,29.7,29.39,East,84,0.0,0.0,80,0.00,,,-99.99,HOBO +U30 +Weather +,2013-03-06 12:40:00,
2013-03-06 07:45:00,35.1,29.6,29.39,ENE,65,0.0,0.0,80,0.00,,,-99.99,HOBO +U30 +Weather +,2013-03-06 12:45:00,
2013-03-06 07:55:00,35.3,29.5,29.39,ENE,62,0.0,5.4,79,0.00,,,-99.99,HOBO +U30 +Weather +,2013-03-06 12:55:00,
2013-03-06 08:00:00,35.3,29.6,29.39,ENE,70,0.0,0.0,79,0.00,,,-99.99,HOBO +U30 +Weather +,2013-03-06 13:00:00,
2013-03-06 08:05:00,35.4,29.6,29.39,ENE,58,0.0,0.4,78,0.00,,,-99.99,HOBO +U30 +Weather +,2013-03-06 13:05:00,
2013-03-06 08:10:00,35.4,29.5,29.40,NE,52,0.0,0.0,78,0.00,,,-99.99,HOBO +U30 +Weather +,2013-03-06 13:10:00,
2013-03-06 08:15:00,35.4,29.5,29.40,ENE,72,0.0,0.0,78,0.00,,,-99.99,HOBO +U30 +Weather +,2013-03-06 13:15:00,
2013-03-06 08:20:00,35.4,29.5,29.40,ENE,67,0.0,0.0,78,0.00,,,-99.99,HOBO +U30 +Weather +,2013-03-06 13:20:00,
2013-03-06 08:30:00,35.3,29.6,29.40,ENE,65,0.0,0.0,79,0.00,,,-99.99,HOBO +U30 +Weather +,2013-03-06 13:30:00,
2013-03-06 08:35:00,35.4,29.8,29.41,ENE,69,0.0,0.0,79,0.00,,,-99.99,HOBO +U30 +Weather +,2013-03-06 13:35:00,
2013-03-06 08:45:00,35.5,29.9,29.41,ENE,66,0.0,0.0,79,0.00,,,-99.99,HOBO +U30 +Weather +,2013-03-06 13:45:00,
2013-03-06 08:50:00,35.4,29.7,29.41,ENE,73,0.0,0.0,79,0.00,,,-99.99,HOBO +U30 +Weather +,2013-03-06 13:50:00,
2013-03-06 08:55:00,35.9,30.1,29.41,NE,49,0.0,0.0,79,0.00,,,-99.99,HOBO +U30 +Weather +,2013-03-06 13:55:00,
2013-03-06 09:00:00,35.8,29.8,29.41,ENE,60,0.0,0.0,78,0.00,,,-99.99,HOBO +U30 +Weather +,2013-03-06 14:00:00,
2013-03-06 09:05:00,35.5,29.4,29.41,ENE,62,1.6,7.8,78,0.00,,,-99.99,HOBO +U30 +Weather +,2013-03-06 14:05:00,
2013-03-06 09:10:00,35.4,29.4,29.41,ENE,69,0.0,0.0,78,0.00,,,-99.99,HOBO +U30 +Weather +,2013-03-06 14:10:00,
2013-03-06 09:15:00,35.4,29.5,29.40,ENE,66,0.0,0.4,78,0.00,,,-99.99,HOBO +U30 +Weather +,2013-03-06 14:15:00,
2013-03-06 09:20:00,35.4,29.6,29.40,ENE,67,0.4,10.1,78,0.00,,,-99.99,HOBO +U30 +Weather +,2013-03-06 14:20:00,
2013-03-06 09:25:00,35.6,29.6,29.40,ENE,59,3.8,9.2,78,0.00,,,-99.99,HOBO +U30 +Weather +,2013-03-06 14:25:00,
2013-03-06 09:30:00,35.6,29.4,29.40,East,90,4.3,15.0,77,0.00,,,-99.99,HOBO +U30 +Weather +,2013-03-06 14:30:00,
2013-03-06 09:35:00,36.0,29.5,29.40,NE,52,2.0,12.1,77,0.00,,,-99.99,HOBO +U30 +Weather +,2013-03-06 14:35:00,
2013-03-06 09:40:00,36.3,29.4,29.41,ENE,69,1.3,10.7,76,0.00,,,-99.99,HOBO +U30 +Weather +,2013-03-06 14:40:00,
2013-03-06 09:50:00,36.4,28.7,29.40,NE,51,0.0,0.0,73,0.00,,,-99.99,HOBO +U30 +Weather +,2013-03-06 14:50:00,
2013-03-06 09:55:00,36.2,28.6,29.40,ENE,63,0.0,0.4,73,0.00,,,-99.99,HOBO +U30 +Weather +,2013-03-06 14:55:00,
2013-03-06 10:00:00,36.0,28.3,29.40,ENE,73,4.3,15.4,73,0.00,,,-99.99,HOBO +U30 +Weather +,2013-03-06 15:00:00,
2013-03-06 10:10:00,35.9,28.3,29.40,ENE,63,3.4,9.6,73,0.00,,,-99.99,HOBO +U30 +Weather +,2013-03-06 15:10:00,
2013-03-06 10:15:00,35.8,28.5,29.40,ENE,67,1.6,15.4,74,0.00,,,-99.99,HOBO +U30 +Weather +,2013-03-06 15:15:00,
2013-03-06 10:20:00,35.9,28.7,29.41,ENE,65,0.0,0.0,74,0.00,,,-99.99,HOBO +U30 +Weather +,2013-03-06 15:20:00,
2013-03-06 10:25:00,35.5,28.5,29.40,ENE,69,0.0,0.4,75,0.00,,,-99.99,HOBO +U30 +Weather +,2013-03-06 15:25:00,
2013-03-06 10:30:00,35.8,28.8,29.40,ENE,58,1.6,8.3,75,0.00,,,-99.99,HOBO +U30 +Weather +,2013-03-06 15:30:00,
2013-03-06 10:35:00,36.0,28.9,29.40,NE,48,3.4,10.3,74,0.00,,,-99.99,HOBO +U30 +Weather +,2013-03-06 15:35:00,
2013-03-06 10:40:00,36.3,29.1,29.41,NE,52,0.0,0.0,74,0.00,,,-99.99,HOBO +U30 +Weather +,2013-03-06 15:40:00,
2013-03-06 10:45:00,36.7,29.3,29.41,East,79,0.0,0.0,74,0.00,,,-99.99,HOBO +U30 +Weather +,2013-03-06 15:45:00,
2013-03-06 10:50:00,36.9,29.8,29.41,ENE,72,0.0,0.0,75,0.00,,,-99.99,HOBO +U30 +Weather +,2013-03-06 15:50:00,
2013-03-06 10:55:00,36.9,29.5,29.41,ENE,74,0.0,0.0,74,0.00,,,-99.99,HOBO +U30 +Weather +,2013-03-06 15:55:00,
2013-03-06 11:00:00,36.5,29.1,29.41,ENE,69,0.0,0.4,74,0.00,,,-99.99,HOBO +U30 +Weather +,2013-03-06 16:00:00,
2013-03-06 11:05:00,36.1,28.4,29.41,ENE,73,0.0,0.0,73,0.00,,,-99.99,HOBO +U30 +Weather +,2013-03-06 16:05:00,
2013-03-06 11:15:00,36.4,28.5,29.41,ENE,69,2.9,12.1,72,0.00,,,-99.99,HOBO +U30 +Weather +,2013-03-06 16:15:00,
2013-03-06 11:20:00,37.0,29.3,29.41,ENE,72,1.3,12.5,73,0.00,,,-99.99,HOBO +U30 +Weather +,2013-03-06 16:20:00,
2013-03-06 11:30:00,37.4,29.0,29.40,ENE,70,0.0,0.4,71,0.00,,,-99.99,HOBO +U30 +Weather +,2013-03-06 16:30:00,
2013-03-06 11:35:00,36.9,28.3,29.40,ENE,76,2.5,8.7,70,0.00,,,-99.99,HOBO +U30 +Weather +,2013-03-06 16:35:00,
2013-03-06 11:40:00,36.9,28.0,29.40,ENE,72,2.9,9.2,69,0.00,,,-99.99,HOBO +U30 +Weather +,2013-03-06 16:40:00,
2013-03-06 11:45:00,37.2,28.2,29.40,East,86,0.0,0.4,69,0.00,,,-99.99,HOBO +U30 +Weather +,2013-03-06 16:45:00,
2013-03-06 11:50:00,37.0,27.4,29.39,ESE,102,2.0,13.0,67,0.00,,,-99.99,HOBO +U30 +Weather +,2013-03-06 16:50:00,
2013-03-06 11:55:00,36.8,27.2,29.39,ENE,69,0.0,0.4,68,0.00,,,-99.99,HOBO +U30 +Weather +,2013-03-06 16:55:00,
2013-03-06 12:00:00,36.6,27.1,29.39,East,80,0.0,0.0,68,0.00,,,-99.99,HOBO +U30 +Weather +,2013-03-06 17:00:00,
2013-03-06 12:05:00,36.4,27.2,29.40,ENE,73,0.0,0.9,69,0.00,,,-99.99,HOBO +U30 +Weather +,2013-03-06 17:05:00,
2013-03-06 12:10:00,36.4,27.3,29.40,ENE,65,0.0,0.0,69,0.00,,,-99.99,HOBO +U30 +Weather +,2013-03-06 17:10:00,
2013-03-06 12:20:00,35.6,26.8,29.40,ENE,67,2.0,12.1,70,0.00,,,-99.99,HOBO +U30 +Weather +,2013-03-06 17:20:00,
2013-03-06 12:25:00,35.2,26.8,29.40,ENE,60,1.6,14.5,71,0.00,,,-99.99,HOBO +U30 +Weather +,2013-03-06 17:25:00,
2013-03-06 12:30:00,34.9,26.7,29.40,ENE,69,5.4,14.5,71,0.00,,,-99.99,HOBO +U30 +Weather +,2013-03-06 17:30:00,
2013-03-06 12:40:00,34.7,26.9,29.40,ENE,59,4.9,11.2,72,0.00,,,-99.99,HOBO +U30 +Weather +,2013-03-06 17:40:00,
2013-03-06 12:45:00,34.9,26.9,29.40,NE,48,0.4,6.7,72,0.00,,,-99.99,HOBO +U30 +Weather +,2013-03-06 17:45:00,
2013-03-06 12:50:00,35.1,26.8,29.40,East,101,0.0,0.0,71,0.00,,,-99.99,HOBO +U30 +Weather +,2013-03-06 17:50:00,
2013-03-06 13:10:00,37.1,26.8,29.39,North,4,0.0,0.0,65,0.00,,,-99.99,HOBO +U30 +Weather +,2013-03-06 18:10:00,
2013-03-06 13:15:00,36.9,26.2,29.39,SSE,150,0.0,0.0,65,0.00,,,-99.99,HOBO +U30 +Weather +,2013-03-06 18:15:00,
2013-03-06 13:20:00,36.5,26.0,29.39,East,83,0.0,0.0,65,0.00,,,-99.99,HOBO +U30 +Weather +,2013-03-06 18:20:00,
2013-03-06 13:25:00,36.8,26.1,29.39,ENE,63,0.0,0.0,65,0.00,,,-99.99,HOBO +U30 +Weather +,2013-03-06 18:25:00,
2013-03-06 13:30:00,37.3,26.3,29.39,East,81,0.0,0.0,64,0.00,,,-99.99,HOBO +U30 +Weather +,2013-03-06 18:30:00,
2013-03-06 13:35:00,37.0,26.0,29.39,ENE,72,0.0,0.0,64,0.00,,,-99.99,HOBO +U30 +Weather +,2013-03-06 18:35:00,
2013-03-06 13:40:00,36.8,25.9,29.39,East,83,0.0,0.0,64,0.00,,,-99.99,HOBO +U30 +Weather +,2013-03-06 18:40:00,
2013-03-06 13:45:00,37.3,26.6,29.39,East,97,0.0,0.0,64,0.00,,,-99.99,HOBO +U30 +Weather +,2013-03-06 18:45:00,
2013-03-06 13:50:00,37.6,26.7,29.39,ENE,74,0.0,0.0,64,0.00,,,-99.99,HOBO +U30 +Weather +,2013-03-06 18:50:00,
2013-03-06 13:55:00,37.4,26.2,29.39,East,86,0.0,0.0,63,0.00,,,-99.99,HOBO +U30 +Weather +,2013-03-06 18:55:00,
2013-03-06 14:05:00,37.0,26.1,29.39,ENE,72,1.6,10.7,64,0.00,,,-99.99,HOBO +U30 +Weather +,2013-03-06 19:05:00,
2013-03-06 14:10:00,37.1,26.3,29.39,ENE,69,0.9,8.3,64,0.00,,,-99.99,HOBO +U30 +Weather +,2013-03-06 19:10:00,
2013-03-06 14:15:00,37.0,26.3,29.39,ENE,70,4.9,14.5,64,0.00,,,-99.99,HOBO +U30 +Weather +,2013-03-06 19:15:00,
2013-03-06 14:20:00,37.0,26.5,29.39,NE,56,0.9,10.7,65,0.00,,,-99.99,HOBO +U30 +Weather +,2013-03-06 19:20:00,
2013-03-06 14:25:00,36.8,26.4,29.39,East,83,4.5,10.1,65,0.00,,,-99.99,HOBO +U30 +Weather +,2013-03-06 19:25:00,
2013-03-06 14:30:00,36.8,26.5,29.39,ENE,67,2.5,12.1,65,0.00,,,-99.99,HOBO +U30 +Weather +,2013-03-06 19:30:00,
2013-03-06 14:35:00,36.7,26.3,29.39,ENE,77,0.0,1.6,65,0.00,,,-99.99,HOBO +U30 +Weather +,2013-03-06 19:35:00,
2013-03-06 14:40:00,36.8,26.3,29.39,ENE,62,0.0,0.0,65,0.00,,,-99.99,HOBO +U30 +Weather +,2013-03-06 19:40:00,
2013-03-06 14:45:00,37.0,26.5,29.39,NE,37,2.9,13.6,65,0.00,,,-99.99,HOBO +U30 +Weather +,2013-03-06 19:45:00,
2013-03-06 14:50:00,37.1,26.4,29.40,ENE,59,1.6,6.7,64,0.00,,,-99.99,HOBO +U30 +Weather +,2013-03-06 19:50:00,
2013-03-06 14:55:00,36.9,26.3,29.40,ENE,62,0.0,0.0,65,0.00,,,-99.99,HOBO +U30 +Weather +,2013-03-06 19:55:00,
2013-03-06 15:00:00,36.9,26.3,29.39,NE,48,0.0,0.0,65,0.00,,,-99.99,HOBO +U30 +Weather +,2013-03-06 20:00:00,
2013-03-06 15:05:00,36.8,26.2,29.39,ENE,69,0.0,0.4,65,0.00,,,-99.99,HOBO +U30 +Weather +,2013-03-06 20:05:00,
2013-03-06 15:10:00,36.5,26.3,29.39,ENE,77,0.0,0.0,66,0.00,,,-99.99,HOBO +U30 +Weather +,2013-03-06 20:10:00,
2013-03-06 15:15:00,36.6,26.4,29.39,ENE,72,2.9,9.2,66,0.00,,,-99.99,HOBO +U30 +Weather +,2013-03-06 20:15:00,
2013-03-06 15:20:00,36.7,26.4,29.39,NE,34,1.3,7.8,65,0.00,,,-99.99,HOBO +U30 +Weather +,2013-03-06 20:20:00,
2013-03-06 15:25:00,36.6,26.2,29.39,ENE,76,0.0,2.0,65,0.00,,,-99.99,HOBO +U30 +Weather +,2013-03-06 20:25:00,
2013-03-06 15:30:00,37.0,26.5,29.39,ENE,63,0.0,0.4,65,0.00,,,-99.99,HOBO +U30 +Weather +,2013-03-06 20:30:00,
2013-03-06 15:35:00,36.9,26.6,29.39,ENE,66,0.0,0.0,65,0.00,,,-99.99,HOBO +U30 +Weather +,2013-03-06 20:35:00,
2013-03-06 15:40:00,36.8,26.3,29.39,ENE,76,0.0,0.4,65,0.00,,,-99.99,HOBO +U30 +Weather +,2013-03-06 20:40:00,
2013-03-06 15:45:00,37.2,26.6,29.39,ENE,59,0.0,0.0,65,0.00,,,-99.99,HOBO +U30 +Weather +,2013-03-06 20:45:00,
2013-03-06 15:50:00,37.2,26.7,29.39,ENE,63,0.0,0.0,65,0.00,,,-99.99,HOBO +U30 +Weather +,2013-03-06 20:50:00,
2013-03-06 15:55:00,37.1,26.4,29.39,ENE,72,0.0,0.4,65,0.00,,,-99.99,HOBO +U30 +Weather +,2013-03-06 20:55:00,
2013-03-06 16:00:00,37.0,26.4,29.39,ENE,67,0.4,5.8,65,0.00,,,-99.99,HOBO +U30 +Weather +,2013-03-06 21:00:00,
2013-03-06 16:05:00,36.6,26.4,29.40,ENE,62,0.0,0.0,66,0.00,,,-99.99,HOBO +U30 +Weather +,2013-03-06 21:05:00,
2013-03-06 16:10:00,36.2,26.4,29.40,ENE,62,0.0,0.4,67,0.00,,,-99.99,HOBO +U30 +Weather +,2013-03-06 21:10:00,
2013-03-06 16:15:00,35.9,26.3,29.40,ENE,67,4.5,10.1,67,0.00,,,-99.99,HOBO +U30 +Weather +,2013-03-06 21:15:00,
2013-03-06 16:20:00,35.7,26.4,29.40,ENE,67,0.0,7.4,68,0.00,,,-99.99,HOBO +U30 +Weather +,2013-03-06 21:20:00,
2013-03-06 16:25:00,35.4,26.6,29.40,ENE,74,0.0,0.4,70,0.00,,,-99.99,HOBO +U30 +Weather +,2013-03-06 21:25:00,
2013-03-06 16:30:00,35.3,26.6,29.40,ENE,66,0.0,0.4,70,0.00,,,-99.99,HOBO +U30 +Weather +,2013-03-06 21:30:00,
2013-03-06 16:40:00,35.1,26.8,29.40,NE,37,2.0,12.1,71,0.00,,,-99.99,HOBO +U30 +Weather +,2013-03-06 21:40:00,
2013-03-06 16:45:00,35.1,26.8,29.41,ENE,74,2.9,10.3,71,0.00,,,-99.99,HOBO +U30 +Weather +,2013-03-06 21:45:00,
2013-03-06 16:55:00,34.9,26.8,29.41,ENE,67,2.9,9.2,72,0.00,,,-99.99,HOBO +U30 +Weather +,2013-03-06 21:55:00,
2013-03-06 17:00:00,34.8,26.7,29.41,ENE,69,2.0,6.7,72,0.00,,,-99.99,HOBO +U30 +Weather +,2013-03-06 22:00:00,
2013-03-06 17:05:00,34.7,26.7,29.41,North,10,1.6,4.9,72,0.00,,,-99.99,HOBO +U30 +Weather +,2013-03-06 22:05:00,
2013-03-06 17:10:00,34.7,26.6,29.41,East,79,0.0,2.9,71,0.00,,,-99.99,HOBO +U30 +Weather +,2013-03-06 22:10:00,
2013-03-06 17:15:00,34.8,26.5,29.42,NE,53,0.0,0.4,71,0.00,,,-99.99,HOBO +U30 +Weather +,2013-03-06 22:15:00,
2013-03-06 17:30:00,34.6,26.2,29.42,NE,41,0.0,0.0,71,0.00,,,-99.99,HOBO +U30 +Weather +,2013-03-06 22:30:00,
2013-03-06 17:35:00,34.5,26.1,29.42,ENE,62,0.0,0.0,71,0.00,,,-99.99,HOBO +U30 +Weather +,2013-03-06 22:35:00,
2013-03-06 17:45:00,34.6,26.2,29.42,ENE,67,0.0,0.0,71,0.00,,,-99.99,HOBO +U30 +Weather +,2013-03-06 22:45:00,
2013-03-06 17:50:00,34.3,26.1,29.42,NE,53,0.0,0.0,71,0.00,,,-99.99,HOBO +U30 +Weather +,2013-03-06 22:50:00,
2013-03-06 18:05:00,34.2,26.1,29.43,ENE,69,0.0,0.0,71,0.00,,,-99.99,HOBO +U30 +Weather +,2013-03-06 23:05:00,
2013-03-06 18:10:00,34.1,26.0,29.43,NE,49,0.0,0.0,71,0.00,,,-99.99,HOBO +U30 +Weather +,2013-03-06 23:10:00,
2013-03-06 18:15:00,34.0,26.0,29.43,ENE,74,0.0,1.3,72,0.00,,,-99.99,HOBO +U30 +Weather +,2013-03-06 23:15:00,
2013-03-06 18:20:00,33.8,26.1,29.43,NE,45,0.0,0.0,73,0.00,,,-99.99,HOBO +U30 +Weather +,2013-03-06 23:20:00,
2013-03-06 18:25:00,33.8,26.1,29.43,NE,51,0.0,0.0,73,0.00,,,-99.99,HOBO +U30 +Weather +,2013-03-06 23:25:00,
2013-03-06 18:30:00,33.8,26.2,29.44,ENE,72,0.0,0.0,73,0.00,,,-99.99,HOBO +U30 +Weather +,2013-03-06 23:30:00,
2013-03-06 18:35:00,33.7,26.1,29.44,NE,51,0.0,0.0,73,0.00,,,-99.99,HOBO +U30 +Weather +,2013-03-06 23:35:00,
2013-03-06 18:40:00,33.6,26.3,29.44,ENE,58,0.0,0.0,74,0.00,,,-99.99,HOBO +U30 +Weather +,2013-03-06 23:40:00,
2013-03-06 18:45:00,33.6,26.3,29.44,NE,52,0.0,0.0,74,0.00,,,-99.99,HOBO +U30 +Weather +,2013-03-06 23:45:00,
2013-03-06 18:55:00,33.3,26.2,29.44,ENE,58,0.0,0.0,75,0.00,,,-99.99,HOBO +U30 +Weather +,2013-03-06 23:55:00,
2013-03-06 19:00:00,33.1,26.3,29.44,ENE,72,0.0,0.0,75,0.00,,,-99.99,HOBO +U30 +Weather +,2013-03-07 00:00:00,
2013-03-06 19:05:00,33.0,26.4,29.44,ENE,72,0.0,0.0,76,0.00,,,-99.99,HOBO +U30 +Weather +,2013-03-07 00:05:00,
2013-03-06 19:10:00,32.9,26.4,29.44,ENE,65,0.0,0.0,76,0.00,,,-99.99,HOBO +U30 +Weather +,2013-03-07 00:10:00,
2013-03-06 19:25:00,32.7,26.4,29.44,NE,56,0.0,0.0,77,0.00,,,-99.99,HOBO +U30 +Weather +,2013-03-07 00:25:00,
2013-03-06 19:30:00,32.6,26.4,29.44,NE,56,0.0,0.0,77,0.00,,,-99.99,HOBO +U30 +Weather +,2013-03-07 00:30:00,
2013-03-06 19:35:00,32.5,26.3,29.44,NE,45,0.0,0.0,77,0.00,,,-99.99,HOBO +U30 +Weather +,2013-03-07 00:35:00,
2013-03-06 19:40:00,32.6,26.3,29.44,NE,38,0.0,0.0,77,0.00,,,-99.99,HOBO +U30 +Weather +,2013-03-07 00:40:00,
2013-03-06 19:45:00,32.6,26.2,29.44,ENE,60,0.0,0.0,76,0.00,,,-99.99,HOBO +U30 +Weather +,2013-03-07 00:45:00,
2013-03-06 19:50:00,32.7,26.1,29.44,ENE,74,0.0,0.0,76,0.00,,,-99.99,HOBO +U30 +Weather +,2013-03-07 00:50:00,
2013-03-06 19:55:00,32.7,25.7,29.43,NE,56,0.0,0.0,75,0.00,,,-99.99,HOBO +U30 +Weather +,2013-03-07 00:55:00,
2013-03-06 20:00:00,32.8,25.5,29.43,ENE,70,0.0,0.0,74,0.00,,,-99.99,HOBO +U30 +Weather +,2013-03-07 01:00:00,
2013-03-06 20:10:00,33.0,24.9,29.43,ENE,74,0.0,0.0,71,0.00,,,-99.99,HOBO +U30 +Weather +,2013-03-07 01:10:00,
2013-03-06 20:15:00,32.8,24.6,29.44,ESE,102,0.0,0.0,71,0.00,,,-99.99,HOBO +U30 +Weather +,2013-03-07 01:15:00,
2013-03-06 20:25:00,32.9,24.2,29.43,NE,46,0.0,0.0,70,0.00,,,-99.99,HOBO +U30 +Weather +,2013-03-07 01:25:00,
2013-03-06 20:30:00,32.9,23.9,29.42,ENE,74,0.0,0.0,69,0.00,,,-99.99,HOBO +U30 +Weather +,2013-03-07 01:30:00,
2013-03-06 20:40:00,32.5,23.7,29.43,ENE,76,0.0,0.0,69,0.00,,,-99.99,HOBO +U30 +Weather +,2013-03-07 01:40:00,
2013-03-06 20:45:00,32.4,23.6,29.43,ENE,73,0.0,0.0,69,0.00,,,-99.99,HOBO +U30 +Weather +,2013-03-07 01:45:00,
2013-03-06 20:50:00,32.5,23.9,29.43,East,81,0.0,0.0,70,0.00,,,-99.99,HOBO +U30 +Weather +,2013-03-07 01:50:00,
2013-03-06 20:55:00,32.5,23.9,29.43,ENE,63,0.0,0.0,70,0.00,,,-99.99,HOBO +U30 +Weather +,2013-03-07 01:55:00,
2013-03-06 21:00:00,32.4,24.0,29.43,ENE,76,0.0,0.0,71,0.00,,,-99.99,HOBO +U30 +Weather +,2013-03-07 02:00:00,
2013-03-06 21:15:00,32.2,23.9,29.43,ENE,77,0.0,0.0,71,0.00,,,-99.99,HOBO +U30 +Weather +,2013-03-07 02:15:00,
2013-03-06 21:20:00,31.8,23.7,29.42,ENE,76,0.0,0.0,71,0.00,,,-99.99,HOBO +U30 +Weather +,2013-03-07 02:20:00,
2013-03-06 21:25:00,32.1,23.9,29.42,NE,52,0.0,0.4,71,0.00,,,-99.99,HOBO +U30 +Weather +,2013-03-07 02:25:00,
2013-03-06 21:30:00,31.9,23.7,29.42,ENE,58,0.0,0.0,71,0.00,,,-99.99,HOBO +U30 +Weather +,2013-03-07 02:30:00,
2013-03-06 21:35:00,32.0,23.6,29.42,ENE,58,0.0,0.0,70,0.00,,,-99.99,HOBO +U30 +Weather +,2013-03-07 02:35:00,
2013-03-06 21:40:00,32.1,23.6,29.42,ENE,74,0.0,0.0,70,0.00,,,-99.99,HOBO +U30 +Weather +,2013-03-07 02:40:00,
2013-03-06 22:25:00,31.4,23.7,29.41,NNE,25,0.0,0.0,73,0.00,,,-99.99,HOBO +U30 +Weather +,2013-03-07 03:25:00,
2013-03-06 22:30:00,31.3,23.5,29.41,NNE,25,0.0,0.0,72,0.00,,,-99.99,HOBO +U30 +Weather +,2013-03-07 03:30:00,
2013-03-06 22:40:00,31.0,23.5,29.41,NNE,25,0.0,0.0,73,0.00,,,-99.99,HOBO +U30 +Weather +,2013-03-07 03:40:00,
2013-03-06 22:45:00,31.1,23.6,29.41,NNE,25,0.0,0.0,73,0.00,,,-99.99,HOBO +U30 +Weather +,2013-03-07 03:45:00,
2013-03-06 22:50:00,31.0,24.0,29.41,NNE,25,0.0,0.0,74,0.00,,,-99.99,HOBO +U30 +Weather +,2013-03-07 03:50:00,
2013-03-06 23:00:00,31.3,24.2,29.41,NNE,24,0.0,0.0,74,0.00,,,-99.99,HOBO +U30 +Weather +,2013-03-07 04:00:00,
2013-03-06 23:05:00,31.8,23.5,29.41,NE,48,0.0,0.0,71,0.00,,,-99.99,HOBO +U30 +Weather +,2013-03-07 04:05:00,
2013-03-06 23:10:00,31.4,23.6,29.41,East,83,0.0,0.0,72,0.00,,,-99.99,HOBO +U30 +Weather +,2013-03-07 04:10:00,
2013-03-06 23:15:00,30.9,24.1,29.41,East,83,0.0,0.0,75,0.00,,,-99.99,HOBO +U30 +Weather +,2013-03-07 04:15:00,
2013-03-06 23:40:00,30.9,23.7,29.41,East,83,0.0,0.0,74,0.00,,,-99.99,HOBO +U30 +Weather +,2013-03-07 04:40:00,
2013-03-06 23:45:00,30.6,24.1,29.41,East,83,0.0,0.0,76,0.00,,,-99.99,HOBO +U30 +Weather +,2013-03-07 04:45:00,